sensor_id;sensor_type;location;lat;lon;timestamp;pressure;altitude;pressure_sealevel;temperature;humidity
29197;BME280;62796;42.654;23.316;2023-03-04T00:02:13;94622.84;;;9.13;59.44
29197;BME280;62796;42.654;23.316;2023-03-04T00:04:39;94615.78;;;9.12;59.51
29197;BME280;62796;42.654;23.316;2023-03-04T00:07:04;94612.13;;;9.06;59.90
29197;BME280;62796;42.654;23.316;2023-03-04T00:09:30;94618.25;;;9.10;60.10
29197;BME280;62796;42.654;23.316;2023-03-04T00:11:55;94609.47;;;9.12;60.22
29197;BME280;62796;42.654;23.316;2023-03-04T00:14:21;94609.88;;;9.19;59.73
29197;BME280;62796;42.654;23.316;2023-03-04T00:16:46;94609.28;;;9.15;60.36
29197;BME280;62796;42.654;23.316;2023-03-04T00:19:13;94605.88;;;9.20;60.08
29197;BME280;62796;42.654;23.316;2023-03-04T00:21:39;94603.97;;;9.26;59.49
29197;BME280;62796;42.654;23.316;2023-03-04T00:24:04;94601.69;;;9.25;59.37
29197;BME280;62796;42.654;23.316;2023-03-04T00:26:31;94603.19;;;9.26;59.55
29197;BME280;62796;42.654;23.316;2023-03-04T00:28:56;94611.97;;;9.24;59.54
29197;BME280;62796;42.654;23.316;2023-03-04T00:31:21;94594.53;;;9.18;59.45
29197;BME280;62796;42.654;23.316;2023-03-04T00:33:47;94604.91;;;9.23;59.58
29197;BME280;62796;42.654;23.316;2023-03-04T00:36:12;94602.81;;;9.18;59.89
29197;BME280;62796;42.654;23.316;2023-03-04T00:38:38;94595.13;;;9.22;59.60
29197;BME280;62796;42.654;23.316;2023-03-04T00:41:03;94593.47;;;9.16;59.80
29197;BME280;62796;42.654;23.316;2023-03-04T00:43:29;94599.78;;;9.16;59.61
29197;BME280;62796;42.654;23.316;2023-03-04T00:45:55;94603.41;;;9.22;59.12
29197;BME280;62796;42.654;23.316;2023-03-04T00:48:21;94605.31;;;9.16;59.09
29197;BME280;62796;42.654;23.316;2023-03-04T00:50:46;94603.50;;;9.13;59.22
29197;BME280;62796;42.654;23.316;2023-03-04T00:53:13;94593.84;;;9.09;59.31
29197;BME280;62796;42.654;23.316;2023-03-04T00:55:38;94601.38;;;9.08;59.38
29197;BME280;62796;42.654;23.316;2023-03-04T00:58:04;94597.09;;;9.07;59.44
29197;BME280;62796;42.654;23.316;2023-03-04T01:00:29;94600.13;;;9.09;59.11
29197;BME280;62796;42.654;23.316;2023-03-04T01:02:55;94598.91;;;9.10;59.29
29197;BME280;62796;42.654;23.316;2023-03-04T01:05:20;94602.31;;;9.05;59.30
29197;BME280;62796;42.654;23.316;2023-03-04T01:07:46;94603.56;;;9.04;59.37
29197;BME280;62796;42.654;23.316;2023-03-04T01:10:13;94602.81;;;9.04;59.61
29197;BME280;62796;42.654;23.316;2023-03-04T01:12:38;94591.94;;;9.00;59.70
29197;BME280;62796;42.654;23.316;2023-03-04T01:15:06;94588.88;;;8.98;59.60
29197;BME280;62796;42.654;23.316;2023-03-04T01:17:32;94596.59;;;8.94;59.62
29197;BME280;62796;42.654;23.316;2023-03-04T01:19:58;94572.75;;;8.82;59.94
29197;BME280;62796;42.654;23.316;2023-03-04T01:22:23;94581.34;;;8.84;60.21
29197;BME280;62796;42.654;23.316;2023-03-04T01:24:48;94588.47;;;8.90;60.00
29197;BME280;62796;42.654;23.316;2023-03-04T01:27:14;94572.75;;;8.82;60.13
29197;BME280;62796;42.654;23.316;2023-03-04T01:29:39;94573.91;;;8.90;60.21
29197;BME280;62796;42.654;23.316;2023-03-04T01:32:05;94574.22;;;8.92;60.30
29197;BME280;62796;42.654;23.316;2023-03-04T01:34:30;94568.38;;;8.90;59.96
29197;BME280;62796;42.654;23.316;2023-03-04T01:36:55;94560.47;;;8.83;59.42
29197;BME280;62796;42.654;23.316;2023-03-04T01:39:21;94571.72;;;8.94;59.29
29197;BME280;62796;42.654;23.316;2023-03-04T01:41:46;94560.84;;;8.90;59.10
29197;BME280;62796;42.654;23.316;2023-03-04T01:44:12;94565.25;;;8.97;58.70
29197;BME280;62796;42.654;23.316;2023-03-04T01:46:41;94561.44;;;8.95;58.99
29197;BME280;62796;42.654;23.316;2023-03-04T01:49:10;94558.41;;;8.93;59.21
29197;BME280;62796;42.654;23.316;2023-03-04T01:51:38;94562.66;;;8.94;58.80
29197;BME280;62796;42.654;23.316;2023-03-04T01:54:03;94554.88;;;8.92;58.62
29197;BME280;62796;42.654;23.316;2023-03-04T01:56:35;94556.09;;;8.91;58.69
29197;BME280;62796;42.654;23.316;2023-03-04T02:01:50;94551.16;;;8.80;58.95
29197;BME280;62796;42.654;23.316;2023-03-04T02:04:18;94549.22;;;8.72;59.01
29197;BME280;62796;42.654;23.316;2023-03-04T02:06:45;94556.84;;;8.77;59.43
29197;BME280;62796;42.654;23.316;2023-03-04T02:09:14;94556.84;;;8.77;58.99
29197;BME280;62796;42.654;23.316;2023-03-04T02:11:39;94546.16;;;8.70;59.09
29197;BME280;62796;42.654;23.316;2023-03-04T02:14:06;94545.69;;;8.71;58.86
29197;BME280;62796;42.654;23.316;2023-03-04T02:16:31;94544.25;;;8.76;59.03
29197;BME280;62796;42.654;23.316;2023-03-04T02:18:57;94542.75;;;8.75;59.06
29197;BME280;62796;42.654;23.316;2023-03-04T02:21:26;94544.25;;;8.76;59.11
29197;BME280;62796;42.654;23.316;2023-03-04T02:26:26;94549.22;;;8.72;58.56
29197;BME280;62796;42.654;23.316;2023-03-04T02:28:53;94551.03;;;8.75;58.42
29197;BME280;62796;42.654;23.316;2023-03-04T02:31:31;94544.56;;;8.78;58.50
29197;BME280;62796;42.654;23.316;2023-03-04T02:33:59;94541.22;;;8.74;58.47
29197;BME280;62796;42.654;23.316;2023-03-04T02:36:26;94545.13;;;8.82;58.50
29197;BME280;62796;42.654;23.316;2023-03-04T02:38:53;94544.69;;;8.83;58.12
29197;BME280;62796;42.654;23.316;2023-03-04T02:41:24;94542.97;;;8.86;58.49
29197;BME280;62796;42.654;23.316;2023-03-04T02:43:54;94541.91;;;8.83;58.26
29197;BME280;62796;42.654;23.316;2023-03-04T02:46:20;94535.34;;;8.81;57.97
29197;BME280;62796;42.654;23.316;2023-03-04T02:48:45;94536.84;;;8.82;58.15
29197;BME280;62796;42.654;23.316;2023-03-04T02:51:11;94535.69;;;8.74;58.63
29197;BME280;62796;42.654;23.316;2023-03-04T02:53:36;94529.22;;;8.77;58.41
29197;BME280;62796;42.654;23.316;2023-03-04T02:56:02;94529.41;;;8.73;58.50
29197;BME280;62796;42.654;23.316;2023-03-04T02:58:28;94512.47;;;8.66;58.35
29197;BME280;62796;42.654;23.316;2023-03-04T03:00:53;94532.34;;;8.70;58.50
29197;BME280;62796;42.654;23.316;2023-03-04T03:03:19;94538.25;;;8.63;58.76
29197;BME280;62796;42.654;23.316;2023-03-04T03:05:44;94527.22;;;8.63;58.57
29197;BME280;62796;42.654;23.316;2023-03-04T03:08:09;94536.06;;;8.67;58.72
29197;BME280;62796;42.654;23.316;2023-03-04T03:10:35;94533.00;;;8.65;58.88
29197;BME280;62796;42.654;23.316;2023-03-04T03:13:01;94523.34;;;8.46;58.96
29197;BME280;62796;42.654;23.316;2023-03-04T03:15:26;94527.44;;;8.36;59.61
29197;BME280;62796;42.654;23.316;2023-03-04T03:17:52;94526.16;;;8.37;59.40
29197;BME280;62796;42.654;23.316;2023-03-04T03:20:17;94530.75;;;8.40;59.41
29197;BME280;62796;42.654;23.316;2023-03-04T03:22:43;94530.19;;;8.36;59.39
29197;BME280;62796;42.654;23.316;2023-03-04T03:25:10;94528.31;;;8.42;59.35
29197;BME280;62796;42.654;23.316;2023-03-04T03:27:36;94537.91;;;8.46;59.21
29197;BME280;62796;42.654;23.316;2023-03-04T03:30:02;94536.19;;;8.49;58.91
29197;BME280;62796;42.654;23.316;2023-03-04T03:32:28;94531.06;;;8.42;59.22
29197;BME280;62796;42.654;23.316;2023-03-04T03:34:54;94530.13;;;8.45;59.40
29197;BME280;62796;42.654;23.316;2023-03-04T03:37:19;94527.81;;;8.43;59.52
29197;BME280;62796;42.654;23.316;2023-03-04T03:39:45;94525.38;;;8.45;59.33
29197;BME280;62796;42.654;23.316;2023-03-04T03:42:10;94519.06;;;8.45;59.26
29197;BME280;62796;42.654;23.316;2023-03-04T03:44:36;94517.19;;;8.51;59.10
29197;BME280;62796;42.654;23.316;2023-03-04T03:47:01;94519.19;;;8.50;59.12
29197;BME280;62796;42.654;23.316;2023-03-04T03:49:27;94515.06;;;8.46;59.34
29197;BME280;62796;42.654;23.316;2023-03-04T03:51:53;94520.78;;;8.42;59.22
29197;BME280;62796;42.654;23.316;2023-03-04T03:54:19;94508.22;;;8.41;59.17
29197;BME280;62796;42.654;23.316;2023-03-04T03:56:44;94521.53;;;8.43;58.92
29197;BME280;62796;42.654;23.316;2023-03-04T03:59:10;94514.50;;;8.42;58.96
29197;BME280;62796;42.654;23.316;2023-03-04T04:01:35;94517.91;;;8.37;58.74
29197;BME280;62796;42.654;23.316;2023-03-04T04:04:01;94517.31;;;8.32;58.92
29197;BME280;62796;42.654;23.316;2023-03-04T04:06:26;94502.81;;;8.23;59.08
29197;BME280;62796;42.654;23.316;2023-03-04T04:08:52;94502.22;;;8.19;59.16
29197;BME280;62796;42.654;23.316;2023-03-04T04:11:17;94508.78;;;8.21;59.14
29197;BME280;62796;42.654;23.316;2023-03-04T04:13:43;94506.06;;;8.12;59.24
29197;BME280;62796;42.654;23.316;2023-03-04T04:16:09;94513.63;;;8.12;59.03
29197;BME280;62796;42.654;23.316;2023-03-04T04:18:35;94506.72;;;8.07;59.35
29197;BME280;62796;42.654;23.316;2023-03-04T04:21:01;94506.16;;;8.03;59.36
29197;BME280;62796;42.654;23.316;2023-03-04T04:23:27;94510.91;;;8.03;59.21
29197;BME280;62796;42.654;23.316;2023-03-04T04:25:56;94509.22;;;8.05;59.08
29197;BME280;62796;42.654;23.316;2023-03-04T04:28:22;94500.06;;;7.99;59.08
29197;BME280;62796;42.654;23.316;2023-03-04T04:30:47;94507.84;;;8.01;59.12
29197;BME280;62796;42.654;23.316;2023-03-04T04:33:13;94504.97;;;7.95;59.00
29197;BME280;62796;42.654;23.316;2023-03-04T04:35:39;94511.25;;;7.96;58.69
29197;BME280;62796;42.654;23.316;2023-03-04T04:38:05;94512.66;;;7.91;58.66
29197;BME280;62796;42.654;23.316;2023-03-04T04:40:31;94498.63;;;7.80;58.41
29197;BME280;62796;42.654;23.316;2023-03-04T04:42:56;94511.78;;;7.85;58.37
29197;BME280;62796;42.654;23.316;2023-03-04T04:45:23;94508.56;;;7.87;58.53
29197;BME280;62796;42.654;23.316;2023-03-04T04:47:52;94499.81;;;7.88;58.27
29197;BME280;62796;42.654;23.316;2023-03-04T04:50:18;94508.72;;;7.83;58.29
29197;BME280;62796;42.654;23.316;2023-03-04T04:52:43;94503.84;;;7.78;58.23
29197;BME280;62796;42.654;23.316;2023-03-04T04:55:09;94514.72;;;7.82;57.70
29197;BME280;62796;42.654;23.316;2023-03-04T04:57:34;94509.81;;;7.76;58.01
29197;BME280;62796;42.654;23.316;2023-03-04T05:00:00;94510.63;;;7.68;58.16
29197;BME280;62796;42.654;23.316;2023-03-04T05:02:25;94523.84;;;7.64;58.11
29197;BME280;62796;42.654;23.316;2023-03-04T05:04:51;94522.63;;;7.56;58.46
29197;BME280;62796;42.654;23.316;2023-03-04T05:07:16;94526.47;;;7.58;58.47
29197;BME280;62796;42.654;23.316;2023-03-04T05:09:42;94530.28;;;7.61;58.22
29197;BME280;62796;42.654;23.316;2023-03-04T05:12:08;94528.75;;;7.60;58.52
29197;BME280;62796;42.654;23.316;2023-03-04T05:14:33;94531.50;;;7.60;58.53
29197;BME280;62796;42.654;23.316;2023-03-04T05:16:58;94535.03;;;7.60;58.81
29197;BME280;62796;42.654;23.316;2023-03-04T05:19:24;94529.81;;;7.62;58.67
29197;BME280;62796;42.654;23.316;2023-03-04T05:21:49;94542.38;;;7.63;58.58
29197;BME280;62796;42.654;23.316;2023-03-04T05:24:15;94532.72;;;7.59;58.63
29197;BME280;62796;42.654;23.316;2023-03-04T05:26:40;94548.34;;;7.62;58.47
29197;BME280;62796;42.654;23.316;2023-03-04T05:29:06;94546.34;;;7.62;58.21
29197;BME280;62796;42.654;23.316;2023-03-04T05:31:31;94543.00;;;7.58;57.37
29197;BME280;62796;42.654;23.316;2023-03-04T05:33:57;94551.41;;;7.64;57.64
29197;BME280;62796;42.654;23.316;2023-03-04T05:36:22;94546.06;;;7.60;57.92
29197;BME280;62796;42.654;23.316;2023-03-04T05:38:47;94547.75;;;7.58;57.88
29197;BME280;62796;42.654;23.316;2023-03-04T05:41:13;94553.88;;;7.53;58.11
29197;BME280;62796;42.654;23.316;2023-03-04T05:43:38;94554.50;;;7.57;58.01
29197;BME280;62796;42.654;23.316;2023-03-04T05:46:07;94553.28;;;7.58;58.27
29197;BME280;62796;42.654;23.316;2023-03-04T05:48:33;94547.16;;;7.54;58.78
29197;BME280;62796;42.654;23.316;2023-03-04T05:51:00;94551.41;;;7.64;58.65
29197;BME280;62796;42.654;23.316;2023-03-04T05:53:26;94557.34;;;7.71;58.68
29197;BME280;62796;42.654;23.316;2023-03-04T05:55:52;94556.53;;;7.80;58.56
29197;BME280;62796;42.654;23.316;2023-03-04T05:58:19;94562.00;;;7.89;58.86
29197;BME280;62796;42.654;23.316;2023-03-04T06:00:44;94563.19;;;7.97;58.58
29197;BME280;62796;42.654;23.316;2023-03-04T06:03:18;94563.31;;;8.03;58.65
29197;BME280;62796;42.654;23.316;2023-03-04T06:05:44;94564.09;;;8.03;58.91
29197;BME280;62796;42.654;23.316;2023-03-04T06:08:10;94571.66;;;8.17;58.64
29197;BME280;62796;42.654;23.316;2023-03-04T06:10:37;94564.25;;;8.23;57.89
29197;BME280;62796;42.654;23.316;2023-03-04T06:13:03;94563.94;;;8.30;57.59
29197;BME280;62796;42.654;23.316;2023-03-04T06:15:28;94568.81;;;8.36;57.91
29197;BME280;62796;42.654;23.316;2023-03-04T06:17:54;94563.88;;;8.40;57.73
29197;BME280;62796;42.654;23.316;2023-03-04T06:20:20;94573.84;;;8.37;58.11
29197;BME280;62796;42.654;23.316;2023-03-04T06:22:45;94556.53;;;8.37;58.13
29197;BME280;62796;42.654;23.316;2023-03-04T06:25:11;94566.00;;;8.45;58.08
29197;BME280;62796;42.654;23.316;2023-03-04T06:27:36;94577.91;;;8.51;58.12
29197;BME280;62796;42.654;23.316;2023-03-04T06:30:02;94575.44;;;8.53;57.50
29197;BME280;62796;42.654;23.316;2023-03-04T06:32:28;94567.44;;;8.55;57.75
29197;BME280;62796;42.654;23.316;2023-03-04T06:34:53;94564.78;;;8.60;57.38
29197;BME280;62796;42.654;23.316;2023-03-04T06:37:19;94573.78;;;8.70;57.77
29197;BME280;62796;42.654;23.316;2023-03-04T06:39:44;94575.91;;;8.75;57.60
29197;BME280;62796;42.654;23.316;2023-03-04T06:42:10;94580.75;;;8.80;57.25
29197;BME280;62796;42.654;23.316;2023-03-04T06:44:35;94581.53;;;8.80;56.93
29197;BME280;62796;42.654;23.316;2023-03-04T06:47:01;94584.28;;;8.80;57.40
29197;BME280;62796;42.654;23.316;2023-03-04T06:49:26;94586.09;;;8.83;56.61
29197;BME280;62796;42.654;23.316;2023-03-04T06:51:52;94584.75;;;8.79;57.00
29197;BME280;62796;42.654;23.316;2023-03-04T06:54:17;94590.34;;;8.70;57.82
29197;BME280;62796;42.654;23.316;2023-03-04T06:56:43;94585.41;;;8.74;57.80
29197;BME280;62796;42.654;23.316;2023-03-04T06:59:08;94583.78;;;8.82;57.61
29197;BME280;62796;42.654;23.316;2023-03-04T07:01:33;94583.34;;;8.83;57.76
29197;BME280;62796;42.654;23.316;2023-03-04T07:03:59;94594.94;;;8.87;57.60
29197;BME280;62796;42.654;23.316;2023-03-04T07:06:26;94588.28;;;8.79;58.07
29197;BME280;62796;42.654;23.316;2023-03-04T07:08:52;94591.53;;;8.78;58.43
29197;BME280;62796;42.654;23.316;2023-03-04T07:11:17;94593.03;;;8.79;58.25
29197;BME280;62796;42.654;23.316;2023-03-04T07:13:43;94595.72;;;8.88;57.58
29197;BME280;62796;42.654;23.316;2023-03-04T07:16:11;94591.72;;;8.89;57.49
29197;BME280;62796;42.654;23.316;2023-03-04T07:18:38;94603.34;;;8.93;57.81
29197;BME280;62796;42.654;23.316;2023-03-04T07:21:04;94600.28;;;8.91;58.02
29197;BME280;62796;42.654;23.316;2023-03-04T07:23:30;94598.56;;;8.94;58.43
29197;BME280;62796;42.654;23.316;2023-03-04T07:25:56;94600.88;;;8.95;58.04
29197;BME280;62796;42.654;23.316;2023-03-04T07:28:21;94599.16;;;8.98;57.52
29197;BME280;62796;42.654;23.316;2023-03-04T07:30:46;94596.66;;;8.85;56.69
29197;BME280;62796;42.654;23.316;2023-03-04T07:33:13;94609.16;;;8.95;56.73
29197;BME280;62796;42.654;23.316;2023-03-04T07:35:39;94606.97;;;8.99;57.07
29197;BME280;62796;42.654;23.316;2023-03-04T07:38:04;94602.38;;;8.96;56.81
29197;BME280;62796;42.654;23.316;2023-03-04T07:40:30;94605.47;;;8.98;56.54
29197;BME280;62796;42.654;23.316;2023-03-04T07:42:55;94599.75;;;9.02;56.35
29197;BME280;62796;42.654;23.316;2023-03-04T07:45:22;94598.91;;;9.10;56.06
29197;BME280;62796;42.654;23.316;2023-03-04T07:47:48;94594.63;;;9.09;56.22
29197;BME280;62796;42.654;23.316;2023-03-04T07:50:13;94592.72;;;9.15;55.58
29197;BME280;62796;42.654;23.316;2023-03-04T07:52:44;94596.25;;;9.16;55.92
29197;BME280;62796;42.654;23.316;2023-03-04T07:55:12;94592.34;;;9.22;56.00
29197;BME280;62796;42.654;23.316;2023-03-04T07:57:39;94588.34;;;9.23;55.68
29197;BME280;62796;42.654;23.316;2023-03-04T08:00:05;94595.41;;;9.24;55.32
29197;BME280;62796;42.654;23.316;2023-03-04T08:02:30;94592.63;;;9.24;55.45
29197;BME280;62796;42.654;23.316;2023-03-04T08:04:56;94592.53;;;9.33;54.43
29197;BME280;62796;42.654;23.316;2023-03-04T08:07:22;94592.19;;;9.40;54.37
29197;BME280;62796;42.654;23.316;2023-03-04T08:09:48;94583.75;;;9.20;55.10
29197;BME280;62796;42.654;23.316;2023-03-04T08:12:13;94596.25;;;9.30;54.60
29197;BME280;62796;42.654;23.316;2023-03-04T08:14:38;94591.31;;;9.34;54.21
29197;BME280;62796;42.654;23.316;2023-03-04T08:17:04;94589.88;;;9.39;54.51
29197;BME280;62796;42.654;23.316;2023-03-04T08:19:29;94586.44;;;9.44;54.31
29197;BME280;62796;42.654;23.316;2023-03-04T08:21:55;94590.53;;;9.49;54.15
29197;BME280;62796;42.654;23.316;2023-03-04T08:24:20;94588.81;;;9.51;54.46
29197;BME280;62796;42.654;23.316;2023-03-04T08:26:47;94587.41;;;9.56;54.71
29197;BME280;62796;42.654;23.316;2023-03-04T08:29:17;94588.53;;;9.64;54.45
29197;BME280;62796;42.654;23.316;2023-03-04T08:31:44;94578.03;;;9.68;53.72
29197;BME280;62796;42.654;23.316;2023-03-04T08:34:11;94575.16;;;9.77;53.89
29197;BME280;62796;42.654;23.316;2023-03-04T08:36:37;94582.59;;;9.85;53.74
29197;BME280;62796;42.654;23.316;2023-03-04T08:39:04;94575.78;;;10.01;53.10
29197;BME280;62796;42.654;23.316;2023-03-04T08:41:29;94584.84;;;10.16;53.52
29197;BME280;62796;42.654;23.316;2023-03-04T08:43:55;94573.94;;;10.27;53.36
29197;BME280;62796;42.654;23.316;2023-03-04T08:46:20;94578.22;;;10.48;52.59
29197;BME280;62796;42.654;23.316;2023-03-04T08:48:45;94560.81;;;10.63;51.78
29197;BME280;62796;42.654;23.316;2023-03-04T08:51:13;94571.88;;;10.83;51.18
29197;BME280;62796;42.654;23.316;2023-03-04T08:53:39;94564.66;;;10.91;50.69
29197;BME280;62796;42.654;23.316;2023-03-04T08:56:05;94565.53;;;11.02;51.08
29197;BME280;62796;42.654;23.316;2023-03-04T08:58:31;94569.75;;;11.18;50.69
29197;BME280;62796;42.654;23.316;2023-03-04T09:00:58;94570.81;;;11.26;49.46
29197;BME280;62796;42.654;23.316;2023-03-04T09:03:24;94563.81;;;11.05;49.63
29197;BME280;62796;42.654;23.316;2023-03-04T09:05:50;94568.50;;;11.19;49.42
29197;BME280;62796;42.654;23.316;2023-03-04T09:08:16;94564.69;;;11.17;49.09
29197;BME280;62796;42.654;23.316;2023-03-04T09:10:42;94557.34;;;10.68;50.08
29197;BME280;62796;42.654;23.316;2023-03-04T09:13:08;94558.00;;;10.83;49.55
29197;BME280;62796;42.654;23.316;2023-03-04T09:15:36;94565.31;;;11.06;49.05
29197;BME280;62796;42.654;23.316;2023-03-04T09:18:02;94555.06;;;11.12;49.10
29197;BME280;62796;42.654;23.316;2023-03-04T09:20:29;94561.41;;;11.18;48.64
29197;BME280;62796;42.654;23.316;2023-03-04T09:22:54;94551.69;;;11.28;48.19
29197;BME280;62796;42.654;23.316;2023-03-04T09:25:20;94552.28;;;11.12;48.61
29197;BME280;62796;42.654;23.316;2023-03-04T09:27:45;94544.16;;;11.29;48.48
29197;BME280;62796;42.654;23.316;2023-03-04T09:30:11;94550.97;;;11.33;48.56
29197;BME280;62796;42.654;23.316;2023-03-04T09:32:36;94548.47;;;11.35;48.39
29197;BME280;62796;42.654;23.316;2023-03-04T09:35:02;94541.47;;;11.40;47.80
29197;BME280;62796;42.654;23.316;2023-03-04T09:37:28;94549.91;;;11.25;47.92
29197;BME280;62796;42.654;23.316;2023-03-04T09:39:53;94542.94;;;11.09;48.70
29197;BME280;62796;42.654;23.316;2023-03-04T09:42:34;94542.00;;;10.92;48.69
29197;BME280;62796;42.654;23.316;2023-03-04T09:45:00;94544.00;;;10.92;48.60
29197;BME280;62796;42.654;23.316;2023-03-04T09:47:27;94532.38;;;10.88;48.42
29197;BME280;62796;42.654;23.316;2023-03-04T09:49:57;94537.25;;;10.73;48.65
29197;BME280;62796;42.654;23.316;2023-03-04T09:53:00;94537.38;;;10.84;48.68
29197;BME280;62796;42.654;23.316;2023-03-04T09:55:24;94534.69;;;10.89;48.56
29197;BME280;62796;42.654;23.316;2023-03-04T10:01:00;94537.44;;;11.15;47.81
29197;BME280;62796;42.654;23.316;2023-03-04T10:03:53;94527.59;;;11.14;47.86
29197;BME280;62796;42.654;23.316;2023-03-04T10:06:19;94524.09;;;11.14;48.03
29197;BME280;62796;42.654;23.316;2023-03-04T10:11:43;94515.75;;;11.39;48.11
29197;BME280;62796;42.654;23.316;2023-03-04T10:17:11;94512.25;;;11.44;46.92
29197;BME280;62796;42.654;23.316;2023-03-04T10:22:32;94501.34;;;11.66;47.18
29197;BME280;62796;42.654;23.316;2023-03-04T10:25:13;94496.63;;;11.73;47.24
29197;BME280;62796;42.654;23.316;2023-03-04T10:27:39;94500.22;;;11.84;46.62
29197;BME280;62796;42.654;23.316;2023-03-04T10:30:12;94502.97;;;11.79;47.34
29197;BME280;62796;42.654;23.316;2023-03-04T10:32:46;94486.06;;;11.77;46.79
29197;BME280;62796;42.654;23.316;2023-03-04T10:35:12;94495.06;;;12.03;46.04
29197;BME280;62796;42.654;23.316;2023-03-04T10:37:49;94493.59;;;12.13;45.83
29197;BME280;62796;42.654;23.316;2023-03-04T10:40:23;94488.63;;;12.28;44.95
29197;BME280;62796;42.654;23.316;2023-03-04T10:42:50;94481.59;;;12.33;44.30
29197;BME280;62796;42.654;23.316;2023-03-04T10:45:25;94476.06;;;12.38;44.02
29197;BME280;62796;42.654;23.316;2023-03-04T10:47:53;94473.06;;;12.47;43.48
29197;BME280;62796;42.654;23.316;2023-03-04T10:50:26;94466.47;;;12.39;43.69
29197;BME280;62796;42.654;23.316;2023-03-04T10:52:52;94465.94;;;12.35;43.68
29197;BME280;62796;42.654;23.316;2023-03-04T10:55:26;94461.63;;;12.34;43.66
29197;BME280;62796;42.654;23.316;2023-03-04T10:57:55;94456.38;;;12.36;44.06
29197;BME280;62796;42.654;23.316;2023-03-04T11:02:50;94440.69;;;12.33;44.11
29197;BME280;62796;42.654;23.316;2023-03-04T11:05:23;94453.81;;;12.33;44.79
29197;BME280;62796;42.654;23.316;2023-03-04T11:07:54;94438.38;;;12.26;45.46
29197;BME280;62796;42.654;23.316;2023-03-04T11:15:24;94430.59;;;12.30;45.58
29197;BME280;62796;42.654;23.316;2023-03-04T11:17:59;94429.53;;;12.22;45.68
29197;BME280;62796;42.654;23.316;2023-03-04T11:22:58;94424.69;;;12.11;45.76
29197;BME280;62796;42.654;23.316;2023-03-04T11:25:32;94417.38;;;12.14;45.30
29197;BME280;62796;42.654;23.316;2023-03-04T11:28:01;94407.03;;;12.14;45.09
29197;BME280;62796;42.654;23.316;2023-03-04T11:33:03;94409.53;;;12.07;46.02
29197;BME280;62796;42.654;23.316;2023-03-04T11:38:23;94403.97;;;12.07;47.04
29197;BME280;62796;42.654;23.316;2023-03-04T11:40:56;94400.47;;;12.12;46.72
29197;BME280;62796;42.654;23.316;2023-03-04T11:43:37;94390.88;;;12.13;46.11
29197;BME280;62796;42.654;23.316;2023-03-04T11:46:15;94397.47;;;12.21;46.09
29197;BME280;62796;42.654;23.316;2023-03-04T11:54:34;94382.34;;;12.28;46.99
29197;BME280;62796;42.654;23.316;2023-03-04T11:57:08;94381.06;;;12.23;47.43
29197;BME280;62796;42.654;23.316;2023-03-04T12:00:11;94374.53;;;12.26;47.85
29197;BME280;62796;42.654;23.316;2023-03-04T12:05:42;94372.50;;;12.27;46.90
29197;BME280;62796;42.654;23.316;2023-03-04T12:08:28;94378.81;;;12.27;47.49
29197;BME280;62796;42.654;23.316;2023-03-04T12:17:01;94366.88;;;12.10;46.78
29197;BME280;62796;42.654;23.316;2023-03-04T12:22:11;94350.28;;;12.15;46.87
29197;BME280;62796;42.654;23.316;2023-03-04T12:25:14;94356.84;;;12.18;46.89
29197;BME280;62796;42.654;23.316;2023-03-04T12:27:45;94352.06;;;12.24;47.31
29197;BME280;62796;42.654;23.316;2023-03-04T12:30:24;94352.81;;;12.30;47.09
29197;BME280;62796;42.654;23.316;2023-03-04T12:38:33;94344.00;;;12.37;46.90
29197;BME280;62796;42.654;23.316;2023-03-04T12:49:50;94328.38;;;12.56;45.41
29197;BME280;62796;42.654;23.316;2023-03-04T12:55:24;94325.34;;;12.54;45.28
29197;BME280;62796;42.654;23.316;2023-03-04T12:57:54;94321.81;;;12.54;45.20
29197;BME280;62796;42.654;23.316;2023-03-04T13:03:52;94297.81;;;12.45;45.09
29197;BME280;62796;42.654;23.316;2023-03-04T13:06:47;94320.28;;;12.58;45.06
29197;BME280;62796;42.654;23.316;2023-03-04T13:09:23;94297.56;;;12.60;44.98
29197;BME280;62796;42.654;23.316;2023-03-04T13:12:10;94303.91;;;12.66;45.15
29197;BME280;62796;42.654;23.316;2023-03-04T13:14:38;94297.06;;;12.61;45.34
29197;BME280;62796;42.654;23.316;2023-03-04T13:17:43;94297.06;;;12.67;44.81
29197;BME280;62796;42.654;23.316;2023-03-04T13:22:52;94294.78;;;12.65;44.75
29197;BME280;62796;42.654;23.316;2023-03-04T13:25:29;94297.06;;;12.56;45.27
29197;BME280;62796;42.654;23.316;2023-03-04T13:47:14;94284.19;;;12.47;45.46
29197;BME280;62796;42.654;23.316;2023-03-04T13:49:40;94282.66;;;12.46;45.54
29197;BME280;62796;42.654;23.316;2023-03-04T13:52:40;94283.16;;;12.50;46.07
29197;BME280;62796;42.654;23.316;2023-03-04T13:55:37;94276.09;;;12.49;46.14
29197;BME280;62796;42.654;23.316;2023-03-04T13:58:25;94264.75;;;12.47;45.76
29197;BME280;62796;42.654;23.316;2023-03-04T14:00:54;94272.56;;;12.43;45.93
29197;BME280;62796;42.654;23.316;2023-03-04T14:03:25;94268.53;;;12.44;46.00
29197;BME280;62796;42.654;23.316;2023-03-04T14:06:15;94260.94;;;12.50;45.87
29197;BME280;62796;42.654;23.316;2023-03-04T14:08:41;94271.06;;;12.53;45.50
29197;BME280;62796;42.654;23.316;2023-03-04T14:11:15;94256.16;;;12.51;46.42
29197;BME280;62796;42.654;23.316;2023-03-04T14:13:42;94255.41;;;12.50;46.02
29197;BME280;62796;42.654;23.316;2023-03-04T14:16:08;94251.59;;;12.53;45.84
29197;BME280;62796;42.654;23.316;2023-03-04T14:18:34;94259.94;;;12.53;45.78
29197;BME280;62796;42.654;23.316;2023-03-04T14:21:01;94257.16;;;12.53;46.00
29197;BME280;62796;42.654;23.316;2023-03-04T14:23:29;94251.38;;;12.51;46.00
29197;BME280;62796;42.654;23.316;2023-03-04T14:28:29;94244.03;;;12.59;46.06
29197;BME280;62796;42.654;23.316;2023-03-04T14:30:56;94244.03;;;12.65;45.52
29197;BME280;62796;42.654;23.316;2023-03-04T14:33:27;94236.69;;;12.67;45.37
29197;BME280;62796;42.654;23.316;2023-03-04T14:35:58;94241.00;;;12.68;45.02
29197;BME280;62796;42.654;23.316;2023-03-04T14:38:33;94235.69;;;12.70;45.24